sensor_id;sensor_type;location;lat;lon;timestamp;P1;durP1;ratioP1;P2;durP2;ratioP2
61911;SDS011;49973;52.084;5.412;2023-09-18T00:01:27;29.87;;;11.87;;
61911;SDS011;49973;52.084;5.412;2023-09-18T00:03:56;36.00;;;11.30;;
61911;SDS011;49973;52.084;5.412;2023-09-18T00:06:25;43.47;;;13.10;;
61911;SDS011;49973;52.084;5.412;2023-09-18T00:08:55;35.33;;;12.47;;
61911;SDS011;49973;52.084;5.412;2023-09-18T00:11:24;30.20;;;11.40;;
61911;SDS011;49973;52.084;5.412;2023-09-18T00:13:53;33.50;;;11.80;;
61911;SDS011;49973;52.084;5.412;2023-09-18T00:16:21;21.30;;;10.67;;
61911;SDS011;49973;52.084;5.412;2023-09-18T00:18:55;23.90;;;10.80;;
61911;SDS011;49973;52.084;5.412;2023-09-18T00:21:23;19.70;;;10.27;;
61911;SDS011;49973;52.084;5.412;2023-09-18T00:23:53;24.67;;;10.77;;
61911;SDS011;49973;52.084;5.412;2023-09-18T00:26:23;24.80;;;10.20;;
61911;SDS011;49973;52.084;5.412;2023-09-18T00:28:53;23.07;;;10.93;;
61911;SDS011;49973;52.084;5.412;2023-09-18T00:31:22;35.23;;;12.03;;
61911;SDS011;49973;52.084;5.412;2023-09-18T00:33:50;21.57;;;10.60;;
61911;SDS011;49973;52.084;5.412;2023-09-18T00:36:19;24.17;;;11.70;;
61911;SDS011;49973;52.084;5.412;2023-09-18T00:38:48;23.87;;;11.13;;
61911;SDS011;49973;52.084;5.412;2023-09-18T00:41:18;24.20;;;10.50;;
61911;SDS011;49973;52.084;5.412;2023-09-18T00:43:47;25.97;;;11.23;;
61911;SDS011;49973;52.084;5.412;2023-09-18T00:46:15;24.90;;;11.53;;
61911;SDS011;49973;52.084;5.412;2023-09-18T00:48:44;20.00;;;10.77;;
61911;SDS011;49973;52.084;5.412;2023-09-18T00:51:13;22.87;;;11.87;;
61911;SDS011;49973;52.084;5.412;2023-09-18T00:53:42;25.90;;;12.13;;
61911;SDS011;49973;52.084;5.412;2023-09-18T00:56:15;22.53;;;11.27;;
61911;SDS011;49973;52.084;5.412;2023-09-18T00:58:50;23.60;;;10.93;;
61911;SDS011;49973;52.084;5.412;2023-09-18T01:01:19;23.73;;;11.40;;
61911;SDS011;49973;52.084;5.412;2023-09-18T01:03:49;22.73;;;11.60;;
61911;SDS011;49973;52.084;5.412;2023-09-18T01:06:20;22.53;;;11.13;;
61911;SDS011;49973;52.084;5.412;2023-09-18T01:08:49;23.77;;;10.77;;
61911;SDS011;49973;52.084;5.412;2023-09-18T01:11:26;24.90;;;11.13;;
61911;SDS011;49973;52.084;5.412;2023-09-18T01:14:07;24.73;;;11.43;;
61911;SDS011;49973;52.084;5.412;2023-09-18T01:16:44;35.57;;;11.60;;
61911;SDS011;49973;52.084;5.412;2023-09-18T01:19:21;28.10;;;11.63;;
61911;SDS011;49973;52.084;5.412;2023-09-18T01:22:03;23.33;;;11.43;;
61911;SDS011;49973;52.084;5.412;2023-09-18T01:24:33;23.80;;;11.03;;
61911;SDS011;49973;52.084;5.412;2023-09-18T01:27:02;33.43;;;11.90;;
61911;SDS011;49973;52.084;5.412;2023-09-18T01:29:32;36.00;;;12.67;;
61911;SDS011;49973;52.084;5.412;2023-09-18T01:32:00;30.73;;;11.73;;
61911;SDS011;49973;52.084;5.412;2023-09-18T01:34:31;47.00;;;11.90;;
61911;SDS011;49973;52.084;5.412;2023-09-18T01:37:03;27.67;;;11.27;;
61911;SDS011;49973;52.084;5.412;2023-09-18T01:39:35;23.30;;;10.93;;
61911;SDS011;49973;52.084;5.412;2023-09-18T01:42:04;29.00;;;11.97;;
61911;SDS011;49973;52.084;5.412;2023-09-18T01:44:36;27.03;;;10.60;;
61911;SDS011;49973;52.084;5.412;2023-09-18T01:47:06;26.33;;;10.20;;
61911;SDS011;49973;52.084;5.412;2023-09-18T01:49:37;28.23;;;11.20;;
61911;SDS011;49973;52.084;5.412;2023-09-18T01:52:07;24.03;;;11.97;;
61911;SDS011;49973;52.084;5.412;2023-09-18T01:54:38;25.63;;;12.10;;
61911;SDS011;49973;52.084;5.412;2023-09-18T01:57:07;35.03;;;13.30;;
61911;SDS011;49973;52.084;5.412;2023-09-18T01:59:35;30.53;;;13.57;;
61911;SDS011;49973;52.084;5.412;2023-09-18T02:02:05;30.23;;;12.83;;
61911;SDS011;49973;52.084;5.412;2023-09-18T02:04:38;36.77;;;13.83;;
61911;SDS011;49973;52.084;5.412;2023-09-18T02:07:27;35.30;;;13.33;;
61911;SDS011;49973;52.084;5.412;2023-09-18T02:09:58;41.27;;;13.30;;
61911;SDS011;49973;52.084;5.412;2023-09-18T02:12:27;32.60;;;12.40;;
61911;SDS011;49973;52.084;5.412;2023-09-18T02:14:55;40.50;;;15.07;;
61911;SDS011;49973;52.084;5.412;2023-09-18T02:17:25;42.37;;;16.13;;
61911;SDS011;49973;52.084;5.412;2023-09-18T02:19:54;54.23;;;17.57;;
61911;SDS011;49973;52.084;5.412;2023-09-18T02:22:23;62.10;;;19.23;;
61911;SDS011;49973;52.084;5.412;2023-09-18T02:24:51;70.60;;;20.53;;
61911;SDS011;49973;52.084;5.412;2023-09-18T02:27:21;65.27;;;20.07;;
61911;SDS011;49973;52.084;5.412;2023-09-18T02:29:50;68.00;;;21.10;;
61911;SDS011;49973;52.084;5.412;2023-09-18T02:32:20;67.00;;;20.47;;
61911;SDS011;49973;52.084;5.412;2023-09-18T02:34:49;58.73;;;21.40;;
61911;SDS011;49973;52.084;5.412;2023-09-18T02:37:18;80.13;;;22.00;;
61911;SDS011;49973;52.084;5.412;2023-09-18T02:39:46;80.20;;;22.70;;
61911;SDS011;49973;52.084;5.412;2023-09-18T02:42:15;73.33;;;21.47;;
61911;SDS011;49973;52.084;5.412;2023-09-18T02:44:45;79.80;;;19.90;;
61911;SDS011;49973;52.084;5.412;2023-09-18T02:47:14;57.27;;;19.53;;
61911;SDS011;49973;52.084;5.412;2023-09-18T02:49:43;54.20;;;18.87;;
61911;SDS011;49973;52.084;5.412;2023-09-18T02:52:13;61.53;;;18.27;;
61911;SDS011;49973;52.084;5.412;2023-09-18T02:54:41;51.53;;;18.73;;
61911;SDS011;49973;52.084;5.412;2023-09-18T02:57:10;64.23;;;18.73;;
61911;SDS011;49973;52.084;5.412;2023-09-18T02:59:40;62.10;;;17.93;;
61911;SDS011;49973;52.084;5.412;2023-09-18T03:02:10;38.10;;;14.93;;
61911;SDS011;49973;52.084;5.412;2023-09-18T03:04:39;35.80;;;14.40;;
61911;SDS011;49973;52.084;5.412;2023-09-18T03:07:07;43.87;;;15.07;;
61911;SDS011;49973;52.084;5.412;2023-09-18T03:09:36;59.53;;;15.67;;
61911;SDS011;49973;52.084;5.412;2023-09-18T03:12:05;30.00;;;13.30;;
61911;SDS011;49973;52.084;5.412;2023-09-18T03:14:34;38.23;;;14.17;;
61911;SDS011;49973;52.084;5.412;2023-09-18T03:17:04;31.17;;;13.53;;
61911;SDS011;49973;52.084;5.412;2023-09-18T03:19:34;29.90;;;13.47;;
61911;SDS011;49973;52.084;5.412;2023-09-18T03:22:03;74.60;;;16.73;;
61911;SDS011;49973;52.084;5.412;2023-09-18T03:24:32;49.73;;;13.83;;
61911;SDS011;49973;52.084;5.412;2023-09-18T03:27:00;54.07;;;14.47;;
61911;SDS011;49973;52.084;5.412;2023-09-18T03:29:29;32.00;;;14.03;;
61911;SDS011;49973;52.084;5.412;2023-09-18T03:32:00;33.83;;;14.23;;
61911;SDS011;49973;52.084;5.412;2023-09-18T03:34:29;41.23;;;14.10;;
61911;SDS011;49973;52.084;5.412;2023-09-18T03:36:59;43.43;;;14.77;;
61911;SDS011;49973;52.084;5.412;2023-09-18T03:39:28;35.00;;;14.10;;
61911;SDS011;49973;52.084;5.412;2023-09-18T03:41:56;58.03;;;15.33;;
61911;SDS011;49973;52.084;5.412;2023-09-18T03:44:25;70.17;;;15.70;;
61911;SDS011;49973;52.084;5.412;2023-09-18T03:46:54;35.53;;;13.83;;
61911;SDS011;49973;52.084;5.412;2023-09-18T03:49:22;36.60;;;13.20;;
61911;SDS011;49973;52.084;5.412;2023-09-18T03:51:51;40.93;;;14.43;;
61911;SDS011;49973;52.084;5.412;2023-09-18T03:54:22;54.70;;;15.87;;
61911;SDS011;49973;52.084;5.412;2023-09-18T03:56:50;54.97;;;17.30;;
61911;SDS011;49973;52.084;5.412;2023-09-18T03:59:19;53.87;;;17.50;;
61911;SDS011;49973;52.084;5.412;2023-09-18T04:01:48;71.77;;;18.43;;
61911;SDS011;49973;52.084;5.412;2023-09-18T04:04:17;59.77;;;16.90;;
61911;SDS011;49973;52.084;5.412;2023-09-18T04:06:46;58.90;;;17.40;;
61911;SDS011;49973;52.084;5.412;2023-09-18T04:09:16;47.70;;;16.20;;
61911;SDS011;49973;52.084;5.412;2023-09-18T04:11:46;57.53;;;18.10;;
61911;SDS011;49973;52.084;5.412;2023-09-18T04:14:15;52.60;;;18.40;;
61911;SDS011;49973;52.084;5.412;2023-09-18T04:16:44;42.80;;;17.37;;
61911;SDS011;49973;52.084;5.412;2023-09-18T04:19:12;53.33;;;17.73;;
61911;SDS011;49973;52.084;5.412;2023-09-18T04:21:41;38.50;;;16.70;;
61911;SDS011;49973;52.084;5.412;2023-09-18T04:24:10;43.90;;;16.83;;
61911;SDS011;49973;52.084;5.412;2023-09-18T04:26:38;41.33;;;15.43;;
61911;SDS011;49973;52.084;5.412;2023-09-18T04:29:09;40.83;;;16.40;;
61911;SDS011;49973;52.084;5.412;2023-09-18T04:31:37;39.43;;;16.20;;
61911;SDS011;49973;52.084;5.412;2023-09-18T04:34:06;56.00;;;17.00;;
61911;SDS011;49973;52.084;5.412;2023-09-18T04:36:35;44.77;;;16.90;;
61911;SDS011;49973;52.084;5.412;2023-09-18T04:39:05;41.13;;;15.20;;
61911;SDS011;49973;52.084;5.412;2023-09-18T04:41:34;55.77;;;15.90;;
61911;SDS011;49973;52.084;5.412;2023-09-18T04:44:05;48.57;;;15.27;;
61911;SDS011;49973;52.084;5.412;2023-09-18T04:46:36;64.17;;;16.23;;
61911;SDS011;49973;52.084;5.412;2023-09-18T04:49:05;40.30;;;14.87;;
61911;SDS011;49973;52.084;5.412;2023-09-18T04:51:34;38.60;;;16.03;;
61911;SDS011;49973;52.084;5.412;2023-09-18T04:54:03;66.40;;;17.80;;
61911;SDS011;49973;52.084;5.412;2023-09-18T04:56:32;0.00;;;0.00;;
61911;SDS011;49973;52.084;5.412;2023-09-18T04:59:01;0.00;;;0.00;;
61911;SDS011;49973;52.084;5.412;2023-09-18T05:01:30;0.10;;;0.10;;
61911;SDS011;49973;52.084;5.412;2023-09-18T05:04:00;0.00;;;0.00;;
61911;SDS011;49973;52.084;5.412;2023-09-18T05:06:29;0.00;;;0.00;;
61911;SDS011;49973;52.084;5.412;2023-09-18T05:08:59;0.00;;;0.00;;
61911;SDS011;49973;52.084;5.412;2023-09-18T05:11:27;0.00;;;0.00;;
61911;SDS011;49973;52.084;5.412;2023-09-18T05:13:57;0.00;;;0.00;;
61911;SDS011;49973;52.084;5.412;2023-09-18T05:16:25;0.00;;;0.00;;
61911;SDS011;49973;52.084;5.412;2023-09-18T05:18:55;0.00;;;0.00;;
61911;SDS011;49973;52.084;5.412;2023-09-18T05:21:25;0.00;;;0.00;;
61911;SDS011;49973;52.084;5.412;2023-09-18T05:23:54;0.00;;;0.00;;
61911;SDS011;49973;52.084;5.412;2023-09-18T05:26:23;0.00;;;0.00;;
61911;SDS011;49973;52.084;5.412;2023-09-18T05:28:53;0.00;;;0.00;;
61911;SDS011;49973;52.084;5.412;2023-09-18T05:31:22;0.00;;;0.00;;
61911;SDS011;49973;52.084;5.412;2023-09-18T05:33:51;0.00;;;0.00;;
61911;SDS011;49973;52.084;5.412;2023-09-18T05:36:20;0.00;;;0.00;;
61911;SDS011;49973;52.084;5.412;2023-09-18T05:38:50;0.00;;;0.00;;
61911;SDS011;49973;52.084;5.412;2023-09-18T05:41:19;0.00;;;0.00;;
61911;SDS011;49973;52.084;5.412;2023-09-18T05:43:48;0.00;;;0.00;;
61911;SDS011;49973;52.084;5.412;2023-09-18T05:46:17;0.00;;;0.00;;
61911;SDS011;49973;52.084;5.412;2023-09-18T05:48:45;0.00;;;0.00;;
61911;SDS011;49973;52.084;5.412;2023-09-18T05:51:14;0.00;;;0.00;;
61911;SDS011;49973;52.084;5.412;2023-09-18T05:53:43;0.00;;;0.00;;
61911;SDS011;49973;52.084;5.412;2023-09-18T05:56:13;0.00;;;0.00;;
61911;SDS011;49973;52.084;5.412;2023-09-18T05:58:44;0.00;;;0.00;;
61911;SDS011;49973;52.084;5.412;2023-09-18T06:01:12;0.00;;;0.00;;
61911;SDS011;49973;52.084;5.412;2023-09-18T06:03:41;0.00;;;0.00;;
61911;SDS011;49973;52.084;5.412;2023-09-18T06:06:10;0.00;;;0.00;;
61911;SDS011;49973;52.084;5.412;2023-09-18T06:08:39;0.00;;;0.00;;
61911;SDS011;49973;52.084;5.412;2023-09-18T06:11:08;0.00;;;0.00;;
61911;SDS011;49973;52.084;5.412;2023-09-18T06:13:38;0.00;;;0.00;;
61911;SDS011;49973;52.084;5.412;2023-09-18T06:16:07;0.00;;;0.00;;
61911;SDS011;49973;52.084;5.412;2023-09-18T06:18:36;0.00;;;0.00;;
61911;SDS011;49973;52.084;5.412;2023-09-18T06:21:05;0.00;;;0.00;;
61911;SDS011;49973;52.084;5.412;2023-09-18T06:23:34;0.00;;;0.00;;
61911;SDS011;49973;52.084;5.412;2023-09-18T06:26:03;0.00;;;0.00;;
61911;SDS011;49973;52.084;5.412;2023-09-18T06:28:32;0.00;;;0.00;;
61911;SDS011;49973;52.084;5.412;2023-09-18T06:31:02;0.00;;;0.00;;
61911;SDS011;49973;52.084;5.412;2023-09-18T06:33:31;0.00;;;0.00;;
61911;SDS011;49973;52.084;5.412;2023-09-18T06:35:59;0.00;;;0.00;;
61911;SDS011;49973;52.084;5.412;2023-09-18T06:38:29;0.00;;;0.00;;
61911;SDS011;49973;52.084;5.412;2023-09-18T06:40:57;0.00;;;0.00;;
61911;SDS011;49973;52.084;5.412;2023-09-18T06:43:26;0.00;;;0.00;;
61911;SDS011;49973;52.084;5.412;2023-09-18T06:45:55;0.00;;;0.00;;
61911;SDS011;49973;52.084;5.412;2023-09-18T06:48:26;0.00;;;0.00;;
61911;SDS011;49973;52.084;5.412;2023-09-18T06:50:59;0.00;;;0.00;;
61911;SDS011;49973;52.084;5.412;2023-09-18T06:53:28;0.00;;;0.00;;
61911;SDS011;49973;52.084;5.412;2023-09-18T06:55:56;0.00;;;0.00;;
61911;SDS011;49973;52.084;5.412;2023-09-18T06:58:26;0.00;;;0.00;;
61911;SDS011;49973;52.084;5.412;2023-09-18T07:01:04;0.00;;;0.00;;
61911;SDS011;49973;52.084;5.412;2023-09-18T07:03:38;0.00;;;0.00;;
61911;SDS011;49973;52.084;5.412;2023-09-18T07:06:07;0.00;;;0.00;;
61911;SDS011;49973;52.084;5.412;2023-09-18T07:08:36;0.00;;;0.00;;
61911;SDS011;49973;52.084;5.412;2023-09-18T07:11:05;0.00;;;0.00;;
61911;SDS011;49973;52.084;5.412;2023-09-18T07:13:34;0.00;;;0.00;;
61911;SDS011;49973;52.084;5.412;2023-09-18T07:16:03;0.00;;;0.00;;
61911;SDS011;49973;52.084;5.412;2023-09-18T07:18:32;0.00;;;0.00;;
61911;SDS011;49973;52.084;5.412;2023-09-18T07:21:02;0.00;;;0.00;;
61911;SDS011;49973;52.084;5.412;2023-09-18T07:23:31;0.00;;;0.00;;
61911;SDS011;49973;52.084;5.412;2023-09-18T07:26:03;0.00;;;0.00;;
61911;SDS011;49973;52.084;5.412;2023-09-18T07:28:33;0.00;;;0.00;;
61911;SDS011;49973;52.084;5.412;2023-09-18T07:31:05;0.00;;;0.00;;
61911;SDS011;49973;52.084;5.412;2023-09-18T07:33:35;0.00;;;0.00;;
61911;SDS011;49973;52.084;5.412;2023-09-18T07:36:05;0.00;;;0.00;;
61911;SDS011;49973;52.084;5.412;2023-09-18T07:38:34;0.00;;;0.00;;
61911;SDS011;49973;52.084;5.412;2023-09-18T07:41:03;0.00;;;0.00;;
61911;SDS011;49973;52.084;5.412;2023-09-18T07:43:32;0.00;;;0.00;;
61911;SDS011;49973;52.084;5.412;2023-09-18T07:46:01;0.00;;;0.00;;
61911;SDS011;49973;52.084;5.412;2023-09-18T07:48:30;0.00;;;0.00;;
61911;SDS011;49973;52.084;5.412;2023-09-18T07:50:58;0.00;;;0.00;;
61911;SDS011;49973;52.084;5.412;2023-09-18T07:53:29;0.00;;;0.00;;
61911;SDS011;49973;52.084;5.412;2023-09-18T07:55:59;0.00;;;0.00;;
61911;SDS011;49973;52.084;5.412;2023-09-18T07:58:32;0.00;;;0.00;;
61911;SDS011;49973;52.084;5.412;2023-09-18T08:01:05;0.00;;;0.00;;
61911;SDS011;49973;52.084;5.412;2023-09-18T08:03:36;0.00;;;0.00;;
61911;SDS011;49973;52.084;5.412;2023-09-18T08:06:05;0.00;;;0.00;;
61911;SDS011;49973;52.084;5.412;2023-09-18T08:08:35;0.00;;;0.00;;
61911;SDS011;49973;52.084;5.412;2023-09-18T08:11:06;0.00;;;0.00;;
61911;SDS011;49973;52.084;5.412;2023-09-18T08:13:37;0.00;;;0.00;;
61911;SDS011;49973;52.084;5.412;2023-09-18T08:16:06;0.00;;;0.00;;
61911;SDS011;49973;52.084;5.412;2023-09-18T08:18:35;0.00;;;0.00;;
61911;SDS011;49973;52.084;5.412;2023-09-18T08:21:08;0.00;;;0.00;;
61911;SDS011;49973;52.084;5.412;2023-09-18T08:23:38;0.00;;;0.00;;
61911;SDS011;49973;52.084;5.412;2023-09-18T08:26:07;0.00;;;0.00;;
61911;SDS011;49973;52.084;5.412;2023-09-18T08:28:37;0.00;;;0.00;;
61911;SDS011;49973;52.084;5.412;2023-09-18T08:31:10;0.00;;;0.00;;
61911;SDS011;49973;52.084;5.412;2023-09-18T08:33:39;0.00;;;0.00;;
61911;SDS011;49973;52.084;5.412;2023-09-18T08:36:08;0.00;;;0.00;;
61911;SDS011;49973;52.084;5.412;2023-09-18T08:38:39;0.00;;;0.00;;
61911;SDS011;49973;52.084;5.412;2023-09-18T08:41:08;0.00;;;0.00;;
61911;SDS011;49973;52.084;5.412;2023-09-18T08:43:38;0.00;;;0.00;;
61911;SDS011;49973;52.084;5.412;2023-09-18T08:46:16;0.00;;;0.00;;
61911;SDS011;49973;52.084;5.412;2023-09-18T08:48:46;0.00;;;0.00;;
61911;SDS011;49973;52.084;5.412;2023-09-18T08:51:16;0.00;;;0.00;;
61911;SDS011;49973;52.084;5.412;2023-09-18T08:53:48;0.00;;;0.00;;
61911;SDS011;49973;52.084;5.412;2023-09-18T08:56:17;0.00;;;0.00;;
61911;SDS011;49973;52.084;5.412;2023-09-18T08:58:47;0.00;;;0.00;;
61911;SDS011;49973;52.084;5.412;2023-09-18T09:01:16;0.00;;;0.00;;
61911;SDS011;49973;52.084;5.412;2023-09-18T09:03:46;0.00;;;0.00;;
61911;SDS011;49973;52.084;5.412;2023-09-18T09:06:16;0.00;;;0.00;;
61911;SDS011;49973;52.084;5.412;2023-09-18T09:08:45;0.00;;;0.00;;
61911;SDS011;49973;52.084;5.412;2023-09-18T09:11:15;0.00;;;0.00;;
61911;SDS011;49973;52.084;5.412;2023-09-18T09:13:44;0.00;;;0.00;;
61911;SDS011;49973;52.084;5.412;2023-09-18T09:16:13;0.00;;;0.00;;
61911;SDS011;49973;52.084;5.412;2023-09-18T09:18:48;0.00;;;0.00;;
61911;SDS011;49973;52.084;5.412;2023-09-18T09:21:19;0.00;;;0.00;;
61911;SDS011;49973;52.084;5.412;2023-09-18T09:23:48;0.00;;;0.00;;
61911;SDS011;49973;52.084;5.412;2023-09-18T09:26:21;0.00;;;0.00;;
61911;SDS011;49973;52.084;5.412;2023-09-18T09:28:51;0.00;;;0.00;;
61911;SDS011;49973;52.084;5.412;2023-09-18T09:31:23;0.00;;;0.00;;
61911;SDS011;49973;52.084;5.412;2023-09-18T09:33:56;0.00;;;0.00;;
61911;SDS011;49973;52.084;5.412;2023-09-18T09:36:25;0.00;;;0.00;;
61911;SDS011;49973;52.084;5.412;2023-09-18T09:38:55;0.00;;;0.00;;
61911;SDS011;49973;52.084;5.412;2023-09-18T09:41:27;0.00;;;0.00;;
61911;SDS011;49973;52.084;5.412;2023-09-18T09:43:56;0.00;;;0.00;;
61911;SDS011;49973;52.084;5.412;2023-09-18T09:46:25;0.00;;;0.00;;
61911;SDS011;49973;52.084;5.412;2023-09-18T09:48:59;0.00;;;0.00;;
61911;SDS011;49973;52.084;5.412;2023-09-18T09:51:29;0.00;;;0.00;;
61911;SDS011;49973;52.084;5.412;2023-09-18T09:53:57;0.00;;;0.00;;
61911;SDS011;49973;52.084;5.412;2023-09-18T09:56:42;0.00;;;0.00;;
61911;SDS011;49973;52.084;5.412;2023-09-18T09:59:13;0.00;;;0.00;;
61911;SDS011;49973;52.084;5.412;2023-09-18T10:01:42;0.00;;;0.00;;
61911;SDS011;49973;52.084;5.412;2023-09-18T10:04:17;0.00;;;0.00;;
61911;SDS011;49973;52.084;5.412;2023-09-18T10:06:48;0.00;;;0.00;;
61911;SDS011;49973;52.084;5.412;2023-09-18T10:09:20;0.00;;;0.00;;
61911;SDS011;49973;52.084;5.412;2023-09-18T10:11:52;0.00;;;0.00;;
61911;SDS011;49973;52.084;5.412;2023-09-18T10:14:28;0.00;;;0.00;;
61911;SDS011;49973;52.084;5.412;2023-09-18T10:17:15;0.00;;;0.00;;
61911;SDS011;49973;52.084;5.412;2023-09-18T10:19:49;0.00;;;0.00;;
61911;SDS011;49973;52.084;5.412;2023-09-18T10:22:24;0.00;;;0.00;;
61911;SDS011;49973;52.084;5.412;2023-09-18T10:25:01;0.00;;;0.00;;
61911;SDS011;49973;52.084;5.412;2023-09-18T10:27:41;0.00;;;0.00;;
61911;SDS011;49973;52.084;5.412;2023-09-18T10:30:11;0.00;;;0.00;;
61911;SDS011;49973;52.084;5.412;2023-09-18T10:32:41;0.00;;;0.00;;
61911;SDS011;49973;52.084;5.412;2023-09-18T10:35:12;0.00;;;0.00;;
61911;SDS011;49973;52.084;5.412;2023-09-18T10:37:41;0.00;;;0.00;;
61911;SDS011;49973;52.084;5.412;2023-09-18T10:40:10;0.00;;;0.00;;
61911;SDS011;49973;52.084;5.412;2023-09-18T10:42:41;0.00;;;0.00;;
61911;SDS011;49973;52.084;5.412;2023-09-18T10:45:11;0.00;;;0.00;;
61911;SDS011;49973;52.084;5.412;2023-09-18T10:47:43;0.00;;;0.00;;
61911;SDS011;49973;52.084;5.412;2023-09-18T10:50:22;0.00;;;0.00;;
61911;SDS011;49973;52.084;5.412;2023-09-18T10:52:52;0.00;;;0.00;;
61911;SDS011;49973;52.084;5.412;2023-09-18T10:55:21;0.00;;;0.00;;
61911;SDS011;49973;52.084;5.412;2023-09-18T10:57:52;0.00;;;0.00;;
61911;SDS011;49973;52.084;5.412;2023-09-18T11:00:24;0.00;;;0.00;;
61911;SDS011;49973;52.084;5.412;2023-09-18T11:03:08;0.00;;;0.00;;
61911;SDS011;49973;52.084;5.412;2023-09-18T11:05:39;0.00;;;0.00;;
61911;SDS011;49973;52.084;5.412;2023-09-18T11:08:24;0.00;;;0.00;;
61911;SDS011;49973;52.084;5.412;2023-09-18T11:11:01;0.00;;;0.00;;
61911;SDS011;49973;52.084;5.412;2023-09-18T11:13:43;0.00;;;0.00;;
61911;SDS011;49973;52.084;5.412;2023-09-18T11:16:15;0.00;;;0.00;;
61911;SDS011;49973;52.084;5.412;2023-09-18T11:18:52;0.00;;;0.00;;
61911;SDS011;49973;52.084;5.412;2023-09-18T11:21:25;0.00;;;0.00;;
61911;SDS011;49973;52.084;5.412;2023-09-18T11:23:58;0.00;;;0.00;;
61911;SDS011;49973;52.084;5.412;2023-09-18T11:26:30;0.00;;;0.00;;
61911;SDS011;49973;52.084;5.412;2023-09-18T11:29:03;0.00;;;0.00;;
61911;SDS011;49973;52.084;5.412;2023-09-18T11:31:42;0.00;;;0.00;;
61911;SDS011;49973;52.084;5.412;2023-09-18T11:34:15;0.00;;;0.00;;
61911;SDS011;49973;52.084;5.412;2023-09-18T11:36:48;0.00;;;0.00;;
61911;SDS011;49973;52.084;5.412;2023-09-18T11:39:34;0.00;;;0.00;;
61911;SDS011;49973;52.084;5.412;2023-09-18T11:42:11;0.00;;;0.00;;
61911;SDS011;49973;52.084;5.412;2023-09-18T11:44:42;0.00;;;0.00;;
61911;SDS011;49973;52.084;5.412;2023-09-18T11:47:14;0.00;;;0.00;;
61911;SDS011;49973;52.084;5.412;2023-09-18T11:49:49;0.00;;;0.00;;
61911;SDS011;49973;52.084;5.412;2023-09-18T11:52:22;0.00;;;0.00;;
61911;SDS011;49973;52.084;5.412;2023-09-18T11:54:52;0.00;;;0.00;;
61911;SDS011;49973;52.084;5.412;2023-09-18T11:57:23;0.00;;;0.00;;
61911;SDS011;49973;52.084;5.412;2023-09-18T11:59:55;0.00;;;0.00;;
61911;SDS011;49973;52.084;5.412;2023-09-18T12:02:37;0.00;;;0.00;;
61911;SDS011;49973;52.084;5.412;2023-09-18T12:05:10;0.00;;;0.00;;
61911;SDS011;49973;52.084;5.412;2023-09-18T12:07:39;0.00;;;0.00;;
61911;SDS011;49973;52.084;5.412;2023-09-18T12:10:12;0.00;;;0.00;;
61911;SDS011;49973;52.084;5.412;2023-09-18T12:12:44;0.00;;;0.00;;
61911;SDS011;49973;52.084;5.412;2023-09-18T12:15:16;0.00;;;0.00;;
61911;SDS011;49973;52.084;5.412;2023-09-18T12:17:46;0.00;;;0.00;;
61911;SDS011;49973;52.084;5.412;2023-09-18T12:20:15;0.00;;;0.00;;
61911;SDS011;49973;52.084;5.412;2023-09-18T12:22:47;0.00;;;0.00;;
61911;SDS011;49973;52.084;5.412;2023-09-18T12:25:16;0.00;;;0.00;;
61911;SDS011;49973;52.084;5.412;2023-09-18T12:27:46;0.00;;;0.00;;
61911;SDS011;49973;52.084;5.412;2023-09-18T12:30:21;0.00;;;0.00;;
61911;SDS011;49973;52.084;5.412;2023-09-18T12:32:51;0.00;;;0.00;;
61911;SDS011;49973;52.084;5.412;2023-09-18T12:35:21;0.00;;;0.00;;
61911;SDS011;49973;52.084;5.412;2023-09-18T12:37:52;0.00;;;0.00;;
61911;SDS011;49973;52.084;5.412;2023-09-18T12:40:24;0.00;;;0.00;;
61911;SDS011;49973;52.084;5.412;2023-09-18T12:42:55;0.00;;;0.00;;
61911;SDS011;49973;52.084;5.412;2023-09-18T12:45:27;0.00;;;0.00;;
61911;SDS011;49973;52.084;5.412;2023-09-18T12:47:57;0.00;;;0.00;;
61911;SDS011;49973;52.084;5.412;2023-09-18T12:50:27;0.00;;;0.00;;
61911;SDS011;49973;52.084;5.412;2023-09-18T12:53:06;0.00;;;0.00;;
61911;SDS011;49973;52.084;5.412;2023-09-18T12:55:35;0.00;;;0.00;;
61911;SDS011;49973;52.084;5.412;2023-09-18T12:58:05;0.00;;;0.00;;
61911;SDS011;49973;52.084;5.412;2023-09-18T13:00:36;0.00;;;0.00;;
61911;SDS011;49973;52.084;5.412;2023-09-18T13:03:04;0.00;;;0.00;;
61911;SDS011;49973;52.084;5.412;2023-09-18T13:05:33;0.00;;;0.00;;
61911;SDS011;49973;52.084;5.412;2023-09-18T13:08:02;0.00;;;0.00;;
61911;SDS011;49973;52.084;5.412;2023-09-18T13:10:45;0.00;;;0.00;;
61911;SDS011;49973;52.084;5.412;2023-09-18T13:13:17;0.00;;;0.00;;
61911;SDS011;49973;52.084;5.412;2023-09-18T13:15:50;0.00;;;0.00;;
61911;SDS011;49973;52.084;5.412;2023-09-18T13:18:22;0.00;;;0.00;;
61911;SDS011;49973;52.084;5.412;2023-09-18T13:20:51;0.00;;;0.00;;
61911;SDS011;49973;52.084;5.412;2023-09-18T13:23:22;0.00;;;0.00;;
61911;SDS011;49973;52.084;5.412;2023-09-18T13:25:59;0.00;;;0.00;;
61911;SDS011;49973;52.084;5.412;2023-09-18T13:28:30;0.00;;;0.00;;
61911;SDS011;49973;52.084;5.412;2023-09-18T13:31:03;0.00;;;0.00;;
61911;SDS011;49973;52.084;5.412;2023-09-18T13:33:37;0.00;;;0.00;;
61911;SDS011;49973;52.084;5.412;2023-09-18T13:36:08;0.00;;;0.00;;
61911;SDS011;49973;52.084;5.412;2023-09-18T13:38:36;0.00;;;0.00;;
61911;SDS011;49973;52.084;5.412;2023-09-18T13:41:05;0.00;;;0.00;;
61911;SDS011;49973;52.084;5.412;2023-09-18T13:43:34;0.00;;;0.00;;
61911;SDS011;49973;52.084;5.412;2023-09-18T13:46:05;0.00;;;0.00;;
61911;SDS011;49973;52.084;5.412;2023-09-18T13:48:33;0.00;;;0.00;;
61911;SDS011;49973;52.084;5.412;2023-09-18T13:51:02;0.00;;;0.00;;
61911;SDS011;49973;52.084;5.412;2023-09-18T13:53:31;0.00;;;0.00;;
61911;SDS011;49973;52.084;5.412;2023-09-18T13:56:01;0.00;;;0.00;;
61911;SDS011;49973;52.084;5.412;2023-09-18T13:58:30;0.00;;;0.00;;
61911;SDS011;49973;52.084;5.412;2023-09-18T14:00:58;0.00;;;0.00;;
61911;SDS011;49973;52.084;5.412;2023-09-18T14:03:28;0.00;;;0.00;;
61911;SDS011;49973;52.084;5.412;2023-09-18T14:06:02;0.00;;;0.00;;
61911;SDS011;49973;52.084;5.412;2023-09-18T14:08:32;0.00;;;0.00;;
61911;SDS011;49973;52.084;5.412;2023-09-18T14:11:01;0.00;;;0.00;;
61911;SDS011;49973;52.084;5.412;2023-09-18T14:13:31;0.00;;;0.00;;
61911;SDS011;49973;52.084;5.412;2023-09-18T14:16:00;0.00;;;0.00;;
61911;SDS011;49973;52.084;5.412;2023-09-18T14:18:32;0.00;;;0.00;;
61911;SDS011;49973;52.084;5.412;2023-09-18T14:21:00;0.00;;;0.00;;
61911;SDS011;49973;52.084;5.412;2023-09-18T14:23:30;0.00;;;0.00;;
61911;SDS011;49973;52.084;5.412;2023-09-18T14:26:01;0.00;;;0.00;;
61911;SDS011;49973;52.084;5.412;2023-09-18T14:28:30;0.00;;;0.00;;
61911;SDS011;49973;52.084;5.412;2023-09-18T14:31:02;0.00;;;0.00;;
61911;SDS011;49973;52.084;5.412;2023-09-18T14:33:32;0.00;;;0.00;;
61911;SDS011;49973;52.084;5.412;2023-09-18T14:36:03;0.00;;;0.00;;
61911;SDS011;49973;52.084;5.412;2023-09-18T14:38:31;0.00;;;0.00;;
61911;SDS011;49973;52.084;5.412;2023-09-18T14:41:00;0.00;;;0.00;;
61911;SDS011;49973;52.084;5.412;2023-09-18T14:43:30;0.00;;;0.00;;
61911;SDS011;49973;52.084;5.412;2023-09-18T14:45:58;0.00;;;0.00;;
61911;SDS011;49973;52.084;5.412;2023-09-18T14:48:27;0.00;;;0.00;;
61911;SDS011;49973;52.084;5.412;2023-09-18T14:50:59;0.00;;;0.00;;
61911;SDS011;49973;52.084;5.412;2023-09-18T14:53:27;0.00;;;0.00;;
61911;SDS011;49973;52.084;5.412;2023-09-18T14:55:56;0.00;;;0.00;;
61911;SDS011;49973;52.084;5.412;2023-09-18T14:58:25;0.00;;;0.00;;